Hundvaag 1 weather for Apr 1995
Month no. 94
Obs.
Da.
Temp. Dew Point Precip. Wind
Speed
Wind gusts Cloud cover Press. Humidity Wind dir. Sunny OPT
01.04.1995 5,1   9,0     0       1  
02.04.1995 3,3   0,0     0       1  
03.04.1995 1,5   8,0     0       1  
04.04.1995 0,9   2,0     6       1  
05.04.1995 0,1   0,0     0          
06.04.1995 4,7   6,0     0          
07.04.1995 5,9   15,0     0       1  
08.04.1995 2,5   0,9     7       1  
09.04.1995 5,3   0,0     2       1  
10.04.1995 2,4   0,3     0          
11.04.1995 4,9   3,1     0          
12.04.1995 6,5   5,3     0       1  
13.04.1995 7,8   1,1     1       1  
14.04.1995 3,6   0,0     0       1  
15.04.1995 5,1   11,2     0       1  
16.04.1995 3,2   1,1     9       1  
17.04.1995 1,3   0,0     10       1  
18.04.1995 -2,2   0,0     10       1  
19.04.1995 2,2   0,0     9       1  
20.04.1995 2,7   9,0     3       1  
21.04.1995 3,1   2,9     0       1  
22.04.1995 6,0   1,9     9          
23.04.1995 11,5   2,0     1       1  
24.04.1995 9,3   0,0     6       1  
25.04.1995 10,9   0,0     10          
26.04.1995 6,1   0,0     0          
27.04.1995 3,2   2,1     0       1  
28.04.1995 2,7   1,9     0       1  
29.04.1995 4,2   1,0     10       1  
30.04.1995 3,8   0,0     10       1  
                       
Avrg/Sum 4,3   83,8     3,4       23